Alliance, North Carolina
Current Conditions -  °F | °C
As of 8:54 AM on Monday 20 Oct 2014 (Local Time) from KEWN Reporting Station
Clear Clear  
Wind Chill: 53°   Ceiling: Unl
Heat Index: 53°   Visibility: 10mi
Dew Point: 49°   Wind: 0mph
Humidity: 86%   Direction: NA
Pressure: 30.2"   Gusts: NA
Location:  35.14°N, 76.8°W
Report Text: KEWN 201254Z 00000KT 10SM CLR 12/09 A3020 RMK AO2 SLP226 T01170094
Loading
Personal Weather Stations






























Interactive Weather Map
Tropical Storm Tracking
New forecast layout! Learn more

10-Day Weather Forecast

Advertisements
Track Severe Weather on mobile